sensor_id;sensor_type;location;lat;lon;timestamp;P1;durP1;ratioP1;P2;durP2;ratioP2
23519;SDS011;11936;50.820;4.336;2023-12-07T00:00:49;31.75;;;17.35;;
23519;SDS011;11936;50.820;4.336;2023-12-07T00:03:14;32.10;;;17.10;;
23519;SDS011;11936;50.820;4.336;2023-12-07T00:05:40;37.28;;;17.65;;
23519;SDS011;11936;50.820;4.336;2023-12-07T00:08:08;38.22;;;18.35;;
23519;SDS011;11936;50.820;4.336;2023-12-07T00:10:35;35.28;;;17.40;;
23519;SDS011;11936;50.820;4.336;2023-12-07T00:13:01;33.00;;;17.42;;
23519;SDS011;11936;50.820;4.336;2023-12-07T00:15:27;30.83;;;16.52;;
23519;SDS011;11936;50.820;4.336;2023-12-07T00:17:52;31.20;;;16.75;;
23519;SDS011;11936;50.820;4.336;2023-12-07T00:20:18;33.30;;;16.52;;
23519;SDS011;11936;50.820;4.336;2023-12-07T00:22:43;33.47;;;17.10;;
23519;SDS011;11936;50.820;4.336;2023-12-07T00:25:09;34.72;;;15.65;;
23519;SDS011;11936;50.820;4.336;2023-12-07T00:27:35;30.33;;;15.60;;
23519;SDS011;11936;50.820;4.336;2023-12-07T00:30:00;33.63;;;16.83;;
23519;SDS011;11936;50.820;4.336;2023-12-07T00:32:26;33.05;;;15.98;;
23519;SDS011;11936;50.820;4.336;2023-12-07T00:34:52;28.35;;;16.83;;
23519;SDS011;11936;50.820;4.336;2023-12-07T00:37:18;25.75;;;14.45;;
23519;SDS011;11936;50.820;4.336;2023-12-07T00:39:43;28.58;;;15.10;;
23519;SDS011;11936;50.820;4.336;2023-12-07T00:42:09;26.08;;;15.23;;
23519;SDS011;11936;50.820;4.336;2023-12-07T00:44:38;29.30;;;15.55;;
23519;SDS011;11936;50.820;4.336;2023-12-07T00:47:07;28.55;;;14.20;;
23519;SDS011;11936;50.820;4.336;2023-12-07T00:49:32;31.40;;;14.98;;
23519;SDS011;11936;50.820;4.336;2023-12-07T00:51:58;28.33;;;15.52;;
23519;SDS011;11936;50.820;4.336;2023-12-07T00:54:24;26.55;;;15.23;;
23519;SDS011;11936;50.820;4.336;2023-12-07T00:56:49;24.63;;;14.57;;
23519;SDS011;11936;50.820;4.336;2023-12-07T00:59:16;24.90;;;15.25;;
23519;SDS011;11936;50.820;4.336;2023-12-07T01:01:41;30.55;;;15.30;;
23519;SDS011;11936;50.820;4.336;2023-12-07T01:04:07;29.92;;;16.10;;
23519;SDS011;11936;50.820;4.336;2023-12-07T01:06:33;27.40;;;14.50;;
23519;SDS011;11936;50.820;4.336;2023-12-07T01:08:58;25.73;;;14.73;;
23519;SDS011;11936;50.820;4.336;2023-12-07T01:11:24;29.85;;;16.08;;
23519;SDS011;11936;50.820;4.336;2023-12-07T01:13:50;27.08;;;15.30;;
23519;SDS011;11936;50.820;4.336;2023-12-07T01:16:15;29.13;;;15.07;;
23519;SDS011;11936;50.820;4.336;2023-12-07T01:18:41;30.20;;;16.40;;
23519;SDS011;11936;50.820;4.336;2023-12-07T01:21:07;25.23;;;15.40;;
23519;SDS011;11936;50.820;4.336;2023-12-07T01:23:32;28.52;;;15.35;;
23519;SDS011;11936;50.820;4.336;2023-12-07T01:25:58;32.88;;;16.00;;
23519;SDS011;11936;50.820;4.336;2023-12-07T01:28:27;31.90;;;16.25;;
23519;SDS011;11936;50.820;4.336;2023-12-07T01:30:52;26.42;;;14.82;;
23519;SDS011;11936;50.820;4.336;2023-12-07T01:33:18;29.80;;;16.10;;
23519;SDS011;11936;50.820;4.336;2023-12-07T01:35:44;34.72;;;17.90;;
23519;SDS011;11936;50.820;4.336;2023-12-07T01:38:09;23.60;;;13.88;;
23519;SDS011;11936;50.820;4.336;2023-12-07T01:40:35;27.40;;;15.57;;
23519;SDS011;11936;50.820;4.336;2023-12-07T01:43:00;24.90;;;14.63;;
23519;SDS011;11936;50.820;4.336;2023-12-07T01:45:26;24.50;;;14.30;;
23519;SDS011;11936;50.820;4.336;2023-12-07T01:47:51;26.65;;;14.00;;
23519;SDS011;11936;50.820;4.336;2023-12-07T01:50:19;31.50;;;15.88;;
23519;SDS011;11936;50.820;4.336;2023-12-07T01:52:48;22.70;;;14.50;;
23519;SDS011;11936;50.820;4.336;2023-12-07T01:55:17;28.40;;;15.52;;
23519;SDS011;11936;50.820;4.336;2023-12-07T01:57:44;30.00;;;16.63;;
23519;SDS011;11936;50.820;4.336;2023-12-07T02:00:11;29.33;;;14.50;;
23519;SDS011;11936;50.820;4.336;2023-12-07T02:02:38;23.90;;;14.40;;
23519;SDS011;11936;50.820;4.336;2023-12-07T02:05:04;24.88;;;13.90;;
23519;SDS011;11936;50.820;4.336;2023-12-07T02:07:30;24.15;;;13.60;;
23519;SDS011;11936;50.820;4.336;2023-12-07T02:09:57;23.10;;;13.80;;
23519;SDS011;11936;50.820;4.336;2023-12-07T02:12:23;21.70;;;14.02;;
23519;SDS011;11936;50.820;4.336;2023-12-07T02:14:50;23.05;;;13.73;;
23519;SDS011;11936;50.820;4.336;2023-12-07T02:20:21;21.80;;;12.52;;
23519;SDS011;11936;50.820;4.336;2023-12-07T02:22:54;24.55;;;12.40;;
23519;SDS011;11936;50.820;4.336;2023-12-07T02:25:23;23.63;;;12.30;;
23519;SDS011;11936;50.820;4.336;2023-12-07T02:27:54;23.88;;;12.32;;
23519;SDS011;11936;50.820;4.336;2023-12-07T02:30:19;21.42;;;12.23;;
23519;SDS011;11936;50.820;4.336;2023-12-07T02:32:45;19.95;;;12.02;;
23519;SDS011;11936;50.820;4.336;2023-12-07T02:35:11;21.75;;;12.18;;
23519;SDS011;11936;50.820;4.336;2023-12-07T02:37:44;21.77;;;11.88;;
23519;SDS011;11936;50.820;4.336;2023-12-07T02:40:13;18.45;;;10.98;;
23519;SDS011;11936;50.820;4.336;2023-12-07T02:42:42;18.00;;;10.68;;
23519;SDS011;11936;50.820;4.336;2023-12-07T02:45:09;21.38;;;11.73;;
23519;SDS011;11936;50.820;4.336;2023-12-07T02:47:36;18.35;;;11.60;;
23519;SDS011;11936;50.820;4.336;2023-12-07T02:50:04;19.00;;;11.63;;
23519;SDS011;11936;50.820;4.336;2023-12-07T02:52:30;23.00;;;11.18;;
23519;SDS011;11936;50.820;4.336;2023-12-07T02:54:56;20.92;;;10.65;;
23519;SDS011;11936;50.820;4.336;2023-12-07T02:57:22;16.08;;;10.73;;
23519;SDS011;11936;50.820;4.336;2023-12-07T02:59:47;20.77;;;11.13;;
23519;SDS011;11936;50.820;4.336;2023-12-07T03:02:13;17.80;;;10.95;;
23519;SDS011;11936;50.820;4.336;2023-12-07T03:04:39;16.02;;;10.85;;
23519;SDS011;11936;50.820;4.336;2023-12-07T03:07:04;20.60;;;11.48;;
23519;SDS011;11936;50.820;4.336;2023-12-07T03:09:32;19.55;;;10.88;;
23519;SDS011;11936;50.820;4.336;2023-12-07T03:11:58;17.52;;;10.90;;
23519;SDS011;11936;50.820;4.336;2023-12-07T03:14:23;18.45;;;10.32;;
23519;SDS011;11936;50.820;4.336;2023-12-07T03:16:49;18.90;;;10.82;;
23519;SDS011;11936;50.820;4.336;2023-12-07T03:19:14;21.90;;;11.75;;
23519;SDS011;11936;50.820;4.336;2023-12-07T03:21:40;19.33;;;10.93;;
23519;SDS011;11936;50.820;4.336;2023-12-07T03:24:07;19.00;;;10.90;;
23519;SDS011;11936;50.820;4.336;2023-12-07T03:26:33;18.42;;;10.60;;
23519;SDS011;11936;50.820;4.336;2023-12-07T03:28:59;17.85;;;11.98;;
23519;SDS011;11936;50.820;4.336;2023-12-07T03:31:25;18.00;;;10.88;;
23519;SDS011;11936;50.820;4.336;2023-12-07T03:33:51;20.00;;;11.63;;
23519;SDS011;11936;50.820;4.336;2023-12-07T03:36:16;19.92;;;10.82;;
23519;SDS011;11936;50.820;4.336;2023-12-07T03:38:42;15.68;;;10.85;;
23519;SDS011;11936;50.820;4.336;2023-12-07T03:41:08;22.83;;;10.35;;
23519;SDS011;11936;50.820;4.336;2023-12-07T03:43:33;15.45;;;9.60;;
23519;SDS011;11936;50.820;4.336;2023-12-07T03:45:59;19.42;;;10.07;;
23519;SDS011;11936;50.820;4.336;2023-12-07T03:48:28;13.82;;;9.13;;
23519;SDS011;11936;50.820;4.336;2023-12-07T03:50:54;21.50;;;9.65;;
23519;SDS011;11936;50.820;4.336;2023-12-07T03:53:19;17.33;;;10.30;;
23519;SDS011;11936;50.820;4.336;2023-12-07T03:55:45;15.68;;;9.85;;
23519;SDS011;11936;50.820;4.336;2023-12-07T03:58:10;15.57;;;9.68;;
23519;SDS011;11936;50.820;4.336;2023-12-07T04:00:38;17.13;;;9.18;;
23519;SDS011;11936;50.820;4.336;2023-12-07T04:03:04;15.30;;;9.45;;
23519;SDS011;11936;50.820;4.336;2023-12-07T04:05:30;18.23;;;9.98;;
23519;SDS011;11936;50.820;4.336;2023-12-07T04:07:56;17.90;;;11.02;;
23519;SDS011;11936;50.820;4.336;2023-12-07T04:10:22;21.80;;;10.85;;
23519;SDS011;11936;50.820;4.336;2023-12-07T04:12:48;18.58;;;10.40;;
23519;SDS011;11936;50.820;4.336;2023-12-07T04:15:13;14.65;;;10.80;;
23519;SDS011;11936;50.820;4.336;2023-12-07T04:17:39;15.93;;;10.05;;
23519;SDS011;11936;50.820;4.336;2023-12-07T04:20:05;15.63;;;10.82;;
23519;SDS011;11936;50.820;4.336;2023-12-07T04:22:32;15.07;;;10.38;;
23519;SDS011;11936;50.820;4.336;2023-12-07T04:24:58;14.30;;;10.18;;
23519;SDS011;11936;50.820;4.336;2023-12-07T04:27:24;17.17;;;10.48;;
23519;SDS011;11936;50.820;4.336;2023-12-07T04:29:49;17.30;;;10.50;;
23519;SDS011;11936;50.820;4.336;2023-12-07T04:32:15;14.63;;;9.32;;
23519;SDS011;11936;50.820;4.336;2023-12-07T04:34:40;17.33;;;10.05;;
23519;SDS011;11936;50.820;4.336;2023-12-07T04:37:06;15.10;;;9.05;;
23519;SDS011;11936;50.820;4.336;2023-12-07T04:39:32;13.88;;;8.70;;
23519;SDS011;11936;50.820;4.336;2023-12-07T04:41:57;15.40;;;9.00;;
23519;SDS011;11936;50.820;4.336;2023-12-07T04:44:23;15.13;;;9.02;;
23519;SDS011;11936;50.820;4.336;2023-12-07T04:46:50;12.95;;;8.45;;
23519;SDS011;11936;50.820;4.336;2023-12-07T04:49:16;11.55;;;8.30;;
23519;SDS011;11936;50.820;4.336;2023-12-07T04:51:42;12.68;;;8.77;;
23519;SDS011;11936;50.820;4.336;2023-12-07T04:54:11;15.77;;;9.30;;
23519;SDS011;11936;50.820;4.336;2023-12-07T04:56:40;12.77;;;9.15;;
23519;SDS011;11936;50.820;4.336;2023-12-07T04:59:06;16.25;;;9.27;;
23519;SDS011;11936;50.820;4.336;2023-12-07T05:01:31;14.18;;;9.73;;
23519;SDS011;11936;50.820;4.336;2023-12-07T05:03:57;14.80;;;9.32;;
23519;SDS011;11936;50.820;4.336;2023-12-07T05:06:22;14.82;;;9.20;;
23519;SDS011;11936;50.820;4.336;2023-12-07T05:08:48;15.25;;;9.23;;
23519;SDS011;11936;50.820;4.336;2023-12-07T05:11:14;17.75;;;10.02;;
23519;SDS011;11936;50.820;4.336;2023-12-07T05:13:39;19.98;;;9.43;;
23519;SDS011;11936;50.820;4.336;2023-12-07T05:16:05;14.43;;;8.40;;
23519;SDS011;11936;50.820;4.336;2023-12-07T05:18:31;14.68;;;10.15;;
23519;SDS011;11936;50.820;4.336;2023-12-07T05:20:56;15.07;;;9.30;;
23519;SDS011;11936;50.820;4.336;2023-12-07T05:23:22;12.65;;;8.73;;
23519;SDS011;11936;50.820;4.336;2023-12-07T05:25:48;13.50;;;9.27;;
23519;SDS011;11936;50.820;4.336;2023-12-07T05:28:13;17.83;;;9.10;;
23519;SDS011;11936;50.820;4.336;2023-12-07T05:30:39;16.85;;;9.38;;
23519;SDS011;11936;50.820;4.336;2023-12-07T05:33:05;15.73;;;9.13;;
23519;SDS011;11936;50.820;4.336;2023-12-07T05:35:30;12.93;;;8.82;;
23519;SDS011;11936;50.820;4.336;2023-12-07T05:37:59;14.25;;;9.55;;
23519;SDS011;11936;50.820;4.336;2023-12-07T05:40:47;13.27;;;8.45;;
23519;SDS011;11936;50.820;4.336;2023-12-07T05:43:13;12.20;;;8.57;;
23519;SDS011;11936;50.820;4.336;2023-12-07T05:45:38;12.90;;;9.10;;
23519;SDS011;11936;50.820;4.336;2023-12-07T05:48:04;15.48;;;9.05;;
23519;SDS011;11936;50.820;4.336;2023-12-07T05:50:30;12.20;;;8.75;;
23519;SDS011;11936;50.820;4.336;2023-12-07T05:52:55;17.75;;;9.32;;
23519;SDS011;11936;50.820;4.336;2023-12-07T05:55:21;15.48;;;8.65;;
23519;SDS011;11936;50.820;4.336;2023-12-07T05:57:47;15.32;;;9.32;;
23519;SDS011;11936;50.820;4.336;2023-12-07T06:00:13;15.35;;;8.82;;
23519;SDS011;11936;50.820;4.336;2023-12-07T06:02:41;14.25;;;8.98;;
23519;SDS011;11936;50.820;4.336;2023-12-07T06:05:07;13.60;;;8.85;;
23519;SDS011;11936;50.820;4.336;2023-12-07T06:07:33;15.35;;;9.82;;
23519;SDS011;11936;50.820;4.336;2023-12-07T06:09:59;13.38;;;8.68;;
23519;SDS011;11936;50.820;4.336;2023-12-07T06:12:24;15.88;;;9.45;;
23519;SDS011;11936;50.820;4.336;2023-12-07T06:14:50;18.63;;;9.55;;
23519;SDS011;11936;50.820;4.336;2023-12-07T06:17:15;13.38;;;9.20;;
23519;SDS011;11936;50.820;4.336;2023-12-07T06:19:41;16.77;;;10.00;;
23519;SDS011;11936;50.820;4.336;2023-12-07T06:22:07;15.20;;;9.10;;
23519;SDS011;11936;50.820;4.336;2023-12-07T06:24:33;12.73;;;9.20;;
23519;SDS011;11936;50.820;4.336;2023-12-07T06:26:59;17.80;;;8.75;;
23519;SDS011;11936;50.820;4.336;2023-12-07T06:29:26;17.67;;;8.47;;
23519;SDS011;11936;50.820;4.336;2023-12-07T06:31:52;12.55;;;8.27;;
23519;SDS011;11936;50.820;4.336;2023-12-07T06:34:17;14.43;;;8.55;;
23519;SDS011;11936;50.820;4.336;2023-12-07T06:36:44;11.85;;;8.32;;
23519;SDS011;11936;50.820;4.336;2023-12-07T06:39:10;14.05;;;8.32;;
23519;SDS011;11936;50.820;4.336;2023-12-07T06:41:35;13.82;;;8.38;;
23519;SDS011;11936;50.820;4.336;2023-12-07T06:44:01;16.83;;;8.90;;
23519;SDS011;11936;50.820;4.336;2023-12-07T06:46:27;12.88;;;8.75;;
23519;SDS011;11936;50.820;4.336;2023-12-07T06:48:52;13.57;;;8.48;;
23519;SDS011;11936;50.820;4.336;2023-12-07T06:51:18;17.20;;;8.75;;
23519;SDS011;11936;50.820;4.336;2023-12-07T06:53:44;17.50;;;9.02;;
23519;SDS011;11936;50.820;4.336;2023-12-07T06:56:09;14.82;;;8.60;;
23519;SDS011;11936;50.820;4.336;2023-12-07T06:58:35;15.82;;;8.45;;
23519;SDS011;11936;50.820;4.336;2023-12-07T07:01:01;15.60;;;8.73;;
23519;SDS011;11936;50.820;4.336;2023-12-07T07:03:26;13.23;;;8.07;;
23519;SDS011;11936;50.820;4.336;2023-12-07T07:05:53;11.73;;;8.02;;
23519;SDS011;11936;50.820;4.336;2023-12-07T07:08:19;12.57;;;8.68;;
23519;SDS011;11936;50.820;4.336;2023-12-07T07:10:45;13.55;;;8.40;;
23519;SDS011;11936;50.820;4.336;2023-12-07T07:16:09;15.13;;;8.05;;
23519;SDS011;11936;50.820;4.336;2023-12-07T07:18:35;12.63;;;8.10;;
23519;SDS011;11936;50.820;4.336;2023-12-07T07:21:02;15.85;;;7.75;;
23519;SDS011;11936;50.820;4.336;2023-12-07T07:23:29;15.27;;;8.02;;
23519;SDS011;11936;50.820;4.336;2023-12-07T07:25:55;15.95;;;8.68;;
23519;SDS011;11936;50.820;4.336;2023-12-07T07:28:20;12.85;;;8.55;;
23519;SDS011;11936;50.820;4.336;2023-12-07T07:30:46;15.95;;;9.30;;
23519;SDS011;11936;50.820;4.336;2023-12-07T07:33:12;15.82;;;8.38;;
23519;SDS011;11936;50.820;4.336;2023-12-07T07:35:37;11.80;;;8.27;;
23519;SDS011;11936;50.820;4.336;2023-12-07T07:38:03;19.95;;;8.40;;
23519;SDS011;11936;50.820;4.336;2023-12-07T07:40:29;14.85;;;8.13;;
23519;SDS011;11936;50.820;4.336;2023-12-07T07:42:54;15.35;;;8.38;;
23519;SDS011;11936;50.820;4.336;2023-12-07T07:45:20;15.70;;;8.23;;
23519;SDS011;11936;50.820;4.336;2023-12-07T07:47:45;16.85;;;8.57;;
23519;SDS011;11936;50.820;4.336;2023-12-07T07:50:11;15.85;;;8.40;;
23519;SDS011;11936;50.820;4.336;2023-12-07T07:52:36;18.63;;;8.57;;
23519;SDS011;11936;50.820;4.336;2023-12-07T07:55:05;20.77;;;8.93;;
23519;SDS011;11936;50.820;4.336;2023-12-07T07:57:32;13.75;;;8.07;;
23519;SDS011;11936;50.820;4.336;2023-12-07T07:59:57;15.50;;;8.13;;
23519;SDS011;11936;50.820;4.336;2023-12-07T08:02:23;16.75;;;7.80;;
23519;SDS011;11936;50.820;4.336;2023-12-07T08:04:49;12.98;;;7.75;;
23519;SDS011;11936;50.820;4.336;2023-12-07T08:07:16;15.77;;;8.57;;
23519;SDS011;11936;50.820;4.336;2023-12-07T08:09:42;13.75;;;7.88;;
23519;SDS011;11936;50.820;4.336;2023-12-07T08:12:08;16.58;;;8.40;;
23519;SDS011;11936;50.820;4.336;2023-12-07T08:14:37;13.80;;;8.55;;
23519;SDS011;11936;50.820;4.336;2023-12-07T08:17:03;14.38;;;8.57;;
23519;SDS011;11936;50.820;4.336;2023-12-07T08:19:28;15.98;;;8.25;;
23519;SDS011;11936;50.820;4.336;2023-12-07T08:21:54;14.88;;;7.47;;
23519;SDS011;11936;50.820;4.336;2023-12-07T08:24:23;15.38;;;8.38;;
23519;SDS011;11936;50.820;4.336;2023-12-07T08:26:50;17.02;;;8.00;;
23519;SDS011;11936;50.820;4.336;2023-12-07T08:29:15;11.50;;;7.78;;
23519;SDS011;11936;50.820;4.336;2023-12-07T08:31:41;11.27;;;7.18;;
23519;SDS011;11936;50.820;4.336;2023-12-07T08:34:07;16.05;;;8.40;;
23519;SDS011;11936;50.820;4.336;2023-12-07T08:36:35;14.43;;;7.93;;
23519;SDS011;11936;50.820;4.336;2023-12-07T08:41:27;12.90;;;7.05;;
23519;SDS011;11936;50.820;4.336;2023-12-07T08:43:52;13.73;;;7.82;;
23519;SDS011;11936;50.820;4.336;2023-12-07T08:46:18;12.82;;;7.82;;
23519;SDS011;11936;50.820;4.336;2023-12-07T08:48:43;14.45;;;7.30;;
23519;SDS011;11936;50.820;4.336;2023-12-07T08:51:09;16.63;;;7.18;;
23519;SDS011;11936;50.820;4.336;2023-12-07T08:53:35;20.42;;;7.60;;
23519;SDS011;11936;50.820;4.336;2023-12-07T08:56:01;10.70;;;6.82;;
23519;SDS011;11936;50.820;4.336;2023-12-07T08:58:27;13.65;;;7.43;;
23519;SDS011;11936;50.820;4.336;2023-12-07T09:00:55;20.98;;;8.60;;
23519;SDS011;11936;50.820;4.336;2023-12-07T09:03:21;11.77;;;6.82;;
23519;SDS011;11936;50.820;4.336;2023-12-07T09:05:52;18.25;;;7.50;;
23519;SDS011;11936;50.820;4.336;2023-12-07T09:08:18;12.40;;;7.55;;
23519;SDS011;11936;50.820;4.336;2023-12-07T09:10:43;10.27;;;7.35;;
23519;SDS011;11936;50.820;4.336;2023-12-07T09:13:09;12.38;;;7.10;;
23519;SDS011;11936;50.820;4.336;2023-12-07T09:15:35;12.27;;;7.05;;
23519;SDS011;11936;50.820;4.336;2023-12-07T09:18:02;13.10;;;7.07;;
23519;SDS011;11936;50.820;4.336;2023-12-07T09:20:28;11.48;;;5.85;;
23519;SDS011;11936;50.820;4.336;2023-12-07T09:22:54;10.32;;;6.97;;
23519;SDS011;11936;50.820;4.336;2023-12-07T09:25:22;10.77;;;7.40;;
23519;SDS011;11936;50.820;4.336;2023-12-07T09:27:47;9.93;;;6.45;;
23519;SDS011;11936;50.820;4.336;2023-12-07T09:30:13;14.80;;;7.63;;
23519;SDS011;11936;50.820;4.336;2023-12-07T09:32:39;11.93;;;6.00;;
23519;SDS011;11936;50.820;4.336;2023-12-07T09:35:07;13.18;;;8.27;;
23519;SDS011;11936;50.820;4.336;2023-12-07T09:37:40;9.98;;;6.35;;
23519;SDS011;11936;50.820;4.336;2023-12-07T09:40:06;12.77;;;6.40;;
23519;SDS011;11936;50.820;4.336;2023-12-07T09:42:35;9.15;;;6.50;;
23519;SDS011;11936;50.820;4.336;2023-12-07T09:45:01;14.77;;;7.85;;
23519;SDS011;11936;50.820;4.336;2023-12-07T09:47:27;11.18;;;5.78;;
23519;SDS011;11936;50.820;4.336;2023-12-07T09:49:53;17.10;;;6.63;;
23519;SDS011;11936;50.820;4.336;2023-12-07T09:52:19;13.02;;;5.75;;
23519;SDS011;11936;50.820;4.336;2023-12-07T09:54:47;13.98;;;6.57;;
23519;SDS011;11936;50.820;4.336;2023-12-07T09:57:14;11.27;;;6.03;;
23519;SDS011;11936;50.820;4.336;2023-12-07T09:59:43;14.00;;;6.82;;
23519;SDS011;11936;50.820;4.336;2023-12-07T10:02:09;11.15;;;6.63;;
23519;SDS011;11936;50.820;4.336;2023-12-07T10:04:34;13.98;;;6.80;;
23519;SDS011;11936;50.820;4.336;2023-12-07T10:07:01;11.63;;;7.15;;
23519;SDS011;11936;50.820;4.336;2023-12-07T10:09:27;12.68;;;5.95;;
23519;SDS011;11936;50.820;4.336;2023-12-07T10:12:05;12.40;;;5.50;;
23519;SDS011;11936;50.820;4.336;2023-12-07T10:16:57;7.10;;;5.22;;
23519;SDS011;11936;50.820;4.336;2023-12-07T10:19:23;13.70;;;6.00;;
23519;SDS011;11936;50.820;4.336;2023-12-07T10:21:50;10.32;;;6.45;;
23519;SDS011;11936;50.820;4.336;2023-12-07T10:24:17;11.88;;;6.28;;
23519;SDS011;11936;50.820;4.336;2023-12-07T10:26:44;9.70;;;6.15;;
23519;SDS011;11936;50.820;4.336;2023-12-07T10:29:11;9.82;;;6.10;;
23519;SDS011;11936;50.820;4.336;2023-12-07T10:31:37;10.27;;;5.95;;
23519;SDS011;11936;50.820;4.336;2023-12-07T10:34:03;11.75;;;6.18;;
23519;SDS011;11936;50.820;4.336;2023-12-07T10:36:32;7.75;;;5.65;;
23519;SDS011;11936;50.820;4.336;2023-12-07T10:38:58;7.47;;;5.45;;
23519;SDS011;11936;50.820;4.336;2023-12-07T10:41:24;8.48;;;5.55;;
23519;SDS011;11936;50.820;4.336;2023-12-07T10:43:59;10.55;;;5.93;;
23519;SDS011;11936;50.820;4.336;2023-12-07T10:46:26;13.00;;;6.03;;
23519;SDS011;11936;50.820;4.336;2023-12-07T10:49:04;9.80;;;5.18;;
23519;SDS011;11936;50.820;4.336;2023-12-07T10:51:37;11.52;;;5.70;;
23519;SDS011;11936;50.820;4.336;2023-12-07T10:54:16;8.95;;;5.57;;
23519;SDS011;11936;50.820;4.336;2023-12-07T10:56:47;9.75;;;5.97;;
23519;SDS011;11936;50.820;4.336;2023-12-07T10:59:15;8.45;;;5.18;;
23519;SDS011;11936;50.820;4.336;2023-12-07T11:01:42;7.97;;;5.03;;
23519;SDS011;11936;50.820;4.336;2023-12-07T11:04:13;9.93;;;5.70;;
23519;SDS011;11936;50.820;4.336;2023-12-07T11:06:44;11.30;;;6.00;;
23519;SDS011;11936;50.820;4.336;2023-12-07T11:09:13;12.80;;;6.40;;
23519;SDS011;11936;50.820;4.336;2023-12-07T11:14:19;13.30;;;5.57;;
23519;SDS011;11936;50.820;4.336;2023-12-07T11:16:46;8.13;;;4.68;;
23519;SDS011;11936;50.820;4.336;2023-12-07T11:22:01;10.57;;;4.78;;
23519;SDS011;11936;50.820;4.336;2023-12-07T11:24:28;7.13;;;4.28;;
23519;SDS011;11936;50.820;4.336;2023-12-07T11:26:54;11.82;;;5.10;;
23519;SDS011;11936;50.820;4.336;2023-12-07T11:29:20;7.85;;;4.38;;
23519;SDS011;11936;50.820;4.336;2023-12-07T11:31:51;8.57;;;4.50;;
23519;SDS011;11936;50.820;4.336;2023-12-07T11:34:36;7.88;;;4.90;;
23519;SDS011;11936;50.820;4.336;2023-12-07T11:37:06;9.60;;;4.95;;
23519;SDS011;11936;50.820;4.336;2023-12-07T11:39:39;8.13;;;4.63;;
23519;SDS011;11936;50.820;4.336;2023-12-07T11:42:14;9.60;;;4.82;;
23519;SDS011;11936;50.820;4.336;2023-12-07T11:44:41;8.98;;;4.82;;
23519;SDS011;11936;50.820;4.336;2023-12-07T11:49:35;9.30;;;4.32;;
23519;SDS011;11936;50.820;4.336;2023-12-07T11:52:11;7.53;;;3.95;;
23519;SDS011;11936;50.820;4.336;2023-12-07T11:54:46;11.82;;;5.40;;
23519;SDS011;11936;50.820;4.336;2023-12-07T11:57:14;11.20;;;4.97;;
23519;SDS011;11936;50.820;4.336;2023-12-07T11:59:41;13.38;;;5.65;;
23519;SDS011;11936;50.820;4.336;2023-12-07T12:02:09;9.90;;;5.25;;
23519;SDS011;11936;50.820;4.336;2023-12-07T12:04:38;9.85;;;4.88;;
23519;SDS011;11936;50.820;4.336;2023-12-07T12:07:05;6.05;;;4.55;;
23519;SDS011;11936;50.820;4.336;2023-12-07T12:09:31;7.03;;;4.28;;
23519;SDS011;11936;50.820;4.336;2023-12-07T12:11:59;10.70;;;5.50;;
23519;SDS011;11936;50.820;4.336;2023-12-07T12:14:25;7.40;;;4.40;;
23519;SDS011;11936;50.820;4.336;2023-12-07T12:16:52;7.32;;;3.90;;
23519;SDS011;11936;50.820;4.336;2023-12-07T12:19:18;6.13;;;4.10;;
23519;SDS011;11936;50.820;4.336;2023-12-07T12:21:44;8.45;;;4.05;;
23519;SDS011;11936;50.820;4.336;2023-12-07T12:24:11;7.72;;;3.90;;
23519;SDS011;11936;50.820;4.336;2023-12-07T12:26:38;13.40;;;5.10;;
23519;SDS011;11936;50.820;4.336;2023-12-07T12:29:06;7.97;;;4.07;;
23519;SDS011;11936;50.820;4.336;2023-12-07T12:31:33;8.38;;;4.22;;
23519;SDS011;11936;50.820;4.336;2023-12-07T12:34:05;6.82;;;4.57;;
23519;SDS011;11936;50.820;4.336;2023-12-07T12:36:33;7.03;;;4.30;;
23519;SDS011;11936;50.820;4.336;2023-12-07T12:38:59;7.70;;;4.30;;
23519;SDS011;11936;50.820;4.336;2023-12-07T12:41:25;10.48;;;4.95;;
23519;SDS011;11936;50.820;4.336;2023-12-07T12:43:51;7.53;;;4.55;;
23519;SDS011;11936;50.820;4.336;2023-12-07T12:46:17;7.55;;;4.55;;
23519;SDS011;11936;50.820;4.336;2023-12-07T12:48:56;9.40;;;4.18;;
23519;SDS011;11936;50.820;4.336;2023-12-07T12:51:26;10.70;;;4.55;;
23519;SDS011;11936;50.820;4.336;2023-12-07T12:53:55;8.10;;;4.68;;
23519;SDS011;11936;50.820;4.336;2023-12-07T12:56:22;7.60;;;4.82;;
23519;SDS011;11936;50.820;4.336;2023-12-07T12:58:51;7.63;;;3.85;;
23519;SDS011;11936;50.820;4.336;2023-12-07T13:01:18;9.10;;;4.50;;
23519;SDS011;11936;50.820;4.336;2023-12-07T13:03:45;8.45;;;4.03;;
23519;SDS011;11936;50.820;4.336;2023-12-07T13:06:12;10.38;;;4.53;;
23519;SDS011;11936;50.820;4.336;2023-12-07T13:08:42;5.88;;;4.32;;
23519;SDS011;11936;50.820;4.336;2023-12-07T13:11:08;5.97;;;4.10;;
23519;SDS011;11936;50.820;4.336;2023-12-07T13:13:34;5.43;;;3.63;;
23519;SDS011;11936;50.820;4.336;2023-12-07T13:16:00;6.47;;;3.70;;
23519;SDS011;11936;50.820;4.336;2023-12-07T13:18:26;8.02;;;4.30;;
23519;SDS011;11936;50.820;4.336;2023-12-07T13:20:51;6.38;;;3.70;;
23519;SDS011;11936;50.820;4.336;2023-12-07T13:23:17;8.68;;;4.05;;
23519;SDS011;11936;50.820;4.336;2023-12-07T13:25:43;6.22;;;4.53;;
23519;SDS011;11936;50.820;4.336;2023-12-07T13:28:08;7.97;;;4.00;;
23519;SDS011;11936;50.820;4.336;2023-12-07T13:30:34;6.65;;;3.65;;
23519;SDS011;11936;50.820;4.336;2023-12-07T13:33:00;4.68;;;3.83;;
23519;SDS011;11936;50.820;4.336;2023-12-07T13:35:28;7.22;;;3.88;;
23519;SDS011;11936;50.820;4.336;2023-12-07T13:37:54;6.45;;;4.05;;
23519;SDS011;11936;50.820;4.336;2023-12-07T13:40:20;5.80;;;3.88;;
23519;SDS011;11936;50.820;4.336;2023-12-07T13:42:46;6.72;;;3.58;;
23519;SDS011;11936;50.820;4.336;2023-12-07T13:45:11;6.95;;;4.20;;
23519;SDS011;11936;50.820;4.336;2023-12-07T13:47:37;8.80;;;4.43;;
23519;SDS011;11936;50.820;4.336;2023-12-07T13:50:03;6.43;;;4.00;;
23519;SDS011;11936;50.820;4.336;2023-12-07T13:52:30;7.18;;;3.60;;
23519;SDS011;11936;50.820;4.336;2023-12-07T13:54:57;8.45;;;4.88;;
23519;SDS011;11936;50.820;4.336;2023-12-07T13:57:23;9.98;;;3.92;;
23519;SDS011;11936;50.820;4.336;2023-12-07T13:59:49;7.15;;;3.67;;
23519;SDS011;11936;50.820;4.336;2023-12-07T14:02:15;5.60;;;4.05;;
23519;SDS011;11936;50.820;4.336;2023-12-07T14:04:41;8.02;;;3.55;;
23519;SDS011;11936;50.820;4.336;2023-12-07T14:07:08;8.00;;;4.18;;
23519;SDS011;11936;50.820;4.336;2023-12-07T14:09:35;7.17;;;4.07;;
23519;SDS011;11936;50.820;4.336;2023-12-07T14:12:02;12.55;;;4.75;;
23519;SDS011;11936;50.820;4.336;2023-12-07T14:14:28;10.02;;;4.63;;
23519;SDS011;11936;50.820;4.336;2023-12-07T14:16:54;7.60;;;4.22;;
23519;SDS011;11936;50.820;4.336;2023-12-07T14:19:20;9.57;;;4.45;;
23519;SDS011;11936;50.820;4.336;2023-12-07T14:21:45;8.02;;;4.43;;
23519;SDS011;11936;50.820;4.336;2023-12-07T14:24:12;5.28;;;4.22;;
23519;SDS011;11936;50.820;4.336;2023-12-07T14:26:38;8.25;;;4.80;;
23519;SDS011;11936;50.820;4.336;2023-12-07T14:29:07;5.30;;;4.00;;
23519;SDS011;11936;50.820;4.336;2023-12-07T14:31:34;6.80;;;3.85;;
23519;SDS011;11936;50.820;4.336;2023-12-07T14:34:02;7.87;;;4.57;;
23519;SDS011;11936;50.820;4.336;2023-12-07T14:36:28;6.28;;;3.95;;
23519;SDS011;11936;50.820;4.336;2023-12-07T14:38:54;6.80;;;4.05;;
23519;SDS011;11936;50.820;4.336;2023-12-07T14:41:20;8.55;;;4.63;;
23519;SDS011;11936;50.820;4.336;2023-12-07T14:43:47;7.28;;;4.20;;
23519;SDS011;11936;50.820;4.336;2023-12-07T14:46:13;12.68;;;5.00;;
23519;SDS011;11936;50.820;4.336;2023-12-07T14:48:39;6.53;;;4.13;;